createdAt,value
2022-10-29T00:00:32.190Z,11.59
2022-10-29T00:02:49.235Z,11.58
2022-10-29T00:05:06.329Z,11.56
2022-10-29T00:07:23.338Z,11.57
2022-10-29T00:09:40.555Z,11.55
2022-10-29T00:11:57.778Z,11.53
2022-10-29T00:14:15.089Z,11.47
2022-10-29T00:16:32.059Z,11.43
2022-10-29T00:18:50.158Z,11.42
2022-10-29T00:21:09.501Z,11.41
2022-10-29T00:23:26.538Z,11.40
2022-10-29T00:25:45.693Z,11.41
2022-10-29T00:28:04.044Z,11.40
2022-10-29T00:30:23.048Z,11.39
2022-10-29T00:32:40.290Z,11.38
2022-10-29T00:34:57.495Z,11.36
2022-10-29T00:37:14.924Z,11.32
2022-10-29T00:39:31.960Z,11.31
2022-10-29T00:41:49.162Z,11.31
2022-10-29T00:44:06.955Z,11.33
2022-10-29T00:46:24.203Z,11.29
2022-10-29T00:48:41.433Z,11.28
2022-10-29T00:50:59.451Z,11.27
2022-10-29T00:53:16.493Z,11.25
2022-10-29T00:55:33.722Z,11.19
2022-10-29T00:57:50.663Z,11.20
2022-10-29T01:00:07.628Z,11.13
2022-10-29T01:02:24.687Z,11.12
2022-10-29T01:04:43.171Z,11.11
2022-10-29T01:07:00.120Z,11.07
2022-10-29T01:09:17.169Z,11.06
2022-10-29T01:11:34.092Z,11.04
2022-10-29T01:13:51.121Z,11.03
2022-10-29T01:16:08.269Z,11.00
2022-10-29T01:18:25.824Z,10.98
2022-10-29T01:20:42.844Z,10.95
2022-10-29T01:22:59.863Z,10.91
2022-10-29T01:25:16.894Z,10.88
2022-10-29T01:27:33.864Z,10.85
2022-10-29T01:29:50.790Z,10.85
2022-10-29T01:32:10.207Z,10.87
2022-10-29T01:34:27.454Z,10.86
2022-10-29T01:36:45.939Z,10.82
2022-10-29T01:39:03.150Z,10.77
2022-10-29T01:41:22.563Z,10.77
2022-10-29T01:43:39.763Z,10.74
2022-10-29T01:45:58.126Z,10.74
2022-10-29T01:48:15.174Z,10.72
2022-10-29T01:50:34.232Z,10.72
2022-10-29T01:52:51.575Z,10.69
2022-10-29T01:55:09.879Z,10.74
2022-10-29T01:57:26.923Z,10.73
2022-10-29T01:59:55.423Z,10.69
2022-10-29T02:02:13.276Z,10.68
2022-10-29T02:04:30.465Z,10.70
2022-10-29T02:06:47.763Z,10.70
2022-10-29T02:09:04.755Z,10.71
2022-10-29T02:11:21.689Z,10.68
2022-10-29T02:13:38.810Z,10.63
2022-10-29T02:15:55.689Z,10.64
2022-10-29T02:18:12.878Z,10.65
2022-10-29T02:20:29.933Z,10.63
2022-10-29T02:22:47.220Z,10.62
2022-10-29T02:25:04.283Z,10.63
2022-10-29T02:27:21.308Z,10.60
2022-10-29T02:29:38.182Z,10.59
2022-10-29T02:31:55.450Z,10.58
2022-10-29T02:34:12.831Z,10.60
2022-10-29T02:36:30.117Z,10.57
2022-10-29T02:38:48.081Z,10.57
2022-10-29T02:41:05.446Z,10.57
2022-10-29T02:43:23.429Z,10.56
2022-10-29T02:45:40.407Z,10.55
2022-10-29T02:47:58.162Z,10.55
2022-10-29T02:50:15.681Z,10.56
2022-10-29T02:52:32.888Z,10.57
2022-10-29T02:54:50.207Z,10.60
2022-10-29T02:57:07.099Z,10.60
2022-10-29T02:59:24.586Z,10.61
2022-10-29T03:01:41.989Z,10.62
2022-10-29T03:03:59.281Z,10.63
2022-10-29T03:06:16.535Z,10.67
2022-10-29T03:08:33.773Z,10.71
2022-10-29T03:10:52.977Z,10.68
2022-10-29T03:13:09.991Z,10.64
2022-10-29T03:15:27.194Z,10.63
2022-10-29T03:17:44.465Z,10.62
2022-10-29T03:20:01.668Z,10.63
2022-10-29T03:22:18.655Z,10.62
2022-10-29T03:24:35.590Z,10.66
2022-10-29T03:26:52.631Z,10.71
2022-10-29T03:29:09.894Z,10.69
2022-10-29T03:31:27.804Z,10.68
2022-10-29T03:33:44.834Z,10.69
2022-10-29T03:36:02.218Z,10.70
2022-10-29T03:38:20.534Z,10.69
2022-10-29T03:40:37.586Z,10.70
2022-10-29T03:42:56.219Z,10.72
2022-10-29T03:45:13.691Z,10.73
2022-10-29T03:47:30.669Z,10.74
2022-10-29T03:49:48.664Z,10.75
2022-10-29T03:52:06.250Z,10.75
2022-10-29T03:54:25.083Z,10.74
2022-10-29T03:56:42.277Z,10.77
2022-10-29T03:58:59.380Z,10.79
2022-10-29T04:01:16.515Z,10.82
2022-10-29T04:03:33.856Z,10.80
2022-10-29T04:05:50.912Z,10.80
2022-10-29T04:08:08.146Z,10.80
2022-10-29T04:10:25.134Z,10.81
2022-10-29T04:12:42.381Z,10.82
2022-10-29T04:15:00.614Z,10.80
2022-10-29T04:17:17.893Z,10.84
2022-10-29T04:19:37.577Z,10.82
2022-10-29T04:29:47.135Z,10.82
2022-10-29T04:32:04.452Z,10.82
2022-10-29T04:34:21.402Z,10.83
2022-10-29T04:36:38.688Z,10.87
2022-10-29T04:38:55.999Z,10.88
2022-10-29T04:41:13.011Z,10.89
2022-10-29T04:43:29.976Z,10.88
2022-10-29T04:45:47.015Z,10.85
2022-10-29T04:48:03.944Z,10.85
2022-10-29T04:50:21.151Z,10.86
2022-10-29T04:52:38.406Z,10.87
2022-10-29T04:54:56.587Z,10.89
2022-10-29T04:57:13.820Z,10.90
2022-10-29T04:59:31.098Z,10.88
2022-10-29T05:01:48.048Z,10.88
2022-10-29T05:04:07.432Z,10.85
2022-10-29T05:06:24.437Z,10.87
2022-10-29T05:08:42.649Z,10.87
2022-10-29T05:10:59.512Z,10.88
2022-10-29T05:13:16.521Z,10.88
2022-10-29T05:15:33.503Z,10.87
2022-10-29T05:17:50.800Z,10.81
2022-10-29T05:20:07.858Z,10.80
2022-10-29T05:22:25.077Z,10.77
2022-10-29T05:24:43.116Z,10.75
2022-10-29T05:27:00.339Z,10.75
2022-10-29T05:29:18.675Z,10.75
2022-10-29T05:31:35.665Z,10.77
2022-10-29T05:33:55.630Z,10.74
2022-10-29T05:36:15.708Z,10.74
2022-10-29T05:38:32.595Z,10.73
2022-10-29T05:40:49.611Z,10.75
2022-10-29T05:43:06.598Z,10.80
2022-10-29T05:45:23.638Z,10.80
2022-10-29T05:47:40.531Z,10.80
2022-10-29T05:49:58.821Z,10.81
2022-10-29T05:52:16.804Z,10.80
2022-10-29T05:54:33.995Z,10.81
2022-10-29T05:56:52.088Z,10.83
2022-10-29T05:59:09.303Z,10.86
2022-10-29T06:01:26.660Z,10.94
2022-10-29T06:03:43.818Z,10.97
2022-10-29T06:06:01.190Z,10.95
2022-10-29T06:08:18.293Z,10.93
2022-10-29T06:10:35.493Z,10.91
2022-10-29T06:12:53.735Z,10.90
2022-10-29T06:15:10.957Z,10.92
2022-10-29T06:17:28.293Z,10.92
2022-10-29T06:19:45.316Z,10.93
2022-10-29T06:22:02.293Z,10.93
2022-10-29T06:24:19.229Z,10.96
2022-10-29T06:26:36.230Z,10.93
2022-10-29T06:28:53.271Z,10.92
2022-10-29T06:31:10.655Z,10.97
2022-10-29T06:33:27.611Z,10.98
2022-10-29T06:35:44.902Z,10.99
2022-10-29T06:38:04.076Z,10.99
2022-10-29T06:40:24.317Z,11.01
2022-10-29T06:42:42.455Z,11.07
2022-10-29T06:45:00.189Z,11.08
2022-10-29T06:47:17.451Z,11.14
2022-10-29T06:49:34.387Z,11.16
2022-10-29T06:51:51.460Z,11.16
2022-10-29T06:54:09.441Z,11.18
2022-10-29T06:56:26.467Z,11.21
2022-10-29T06:58:43.441Z,11.25
2022-10-29T07:01:00.503Z,11.32
2022-10-29T07:03:17.574Z,11.42
2022-10-29T07:05:34.815Z,11.44
2022-10-29T07:07:51.907Z,11.48
2022-10-29T07:10:08.879Z,11.54
2022-10-29T07:12:25.894Z,11.58
2022-10-29T07:14:42.921Z,11.66
2022-10-29T07:17:00.037Z,11.71
2022-10-29T07:19:17.277Z,11.73
2022-10-29T07:21:35.465Z,11.77
2022-10-29T07:23:52.439Z,11.81
2022-10-29T07:26:09.412Z,11.86
2022-10-29T07:28:27.934Z,11.90
2022-10-29T07:30:45.934Z,11.94
2022-10-29T07:33:02.948Z,12.00
2022-10-29T07:35:20.318Z,12.06
2022-10-29T07:37:37.625Z,12.11
2022-10-29T07:39:56.052Z,12.18
2022-10-29T07:42:12.986Z,12.23
2022-10-29T07:44:29.969Z,12.28
2022-10-29T07:46:47.283Z,12.33
2022-10-29T07:49:04.308Z,12.38
2022-10-29T07:51:21.526Z,12.43
2022-10-29T07:53:39.549Z,12.51
2022-10-29T07:55:56.555Z,12.57
2022-10-29T07:58:13.590Z,12.65
2022-10-29T08:00:30.973Z,12.69
2022-10-29T08:02:51.112Z,12.78
2022-10-29T08:05:08.142Z,12.84
2022-10-29T08:07:25.403Z,12.84
2022-10-29T08:09:42.264Z,12.88
2022-10-29T08:11:59.296Z,12.94
2022-10-29T08:14:18.896Z,12.99
2022-10-29T08:16:37.246Z,13.06
2022-10-29T08:18:55.263Z,13.11
2022-10-29T08:21:12.534Z,13.17
2022-10-29T08:23:29.585Z,13.20
2022-10-29T08:25:46.831Z,13.22
2022-10-29T08:28:04.111Z,13.26
2022-10-29T08:30:21.056Z,13.31
2022-10-29T08:32:38.103Z,13.34
2022-10-29T08:34:55.156Z,13.36
2022-10-29T08:37:12.355Z,13.42
2022-10-29T08:39:29.389Z,13.48
2022-10-29T08:41:46.364Z,13.52
2022-10-29T08:46:25.178Z,13.57
2022-10-29T08:48:42.238Z,13.58
2022-10-29T08:50:59.287Z,13.60
2022-10-29T08:53:23.426Z,13.62
2022-10-29T08:55:41.261Z,13.64
2022-10-29T08:57:58.591Z,13.65
2022-10-29T09:00:17.181Z,13.67
2022-10-29T09:02:34.266Z,13.72
2022-10-29T09:04:51.208Z,13.80
2022-10-29T09:07:08.628Z,13.82
2022-10-29T09:09:25.616Z,13.86
2022-10-29T09:11:42.620Z,13.91
2022-10-29T09:14:00.154Z,13.97
2022-10-29T09:16:18.002Z,14.04
2022-10-29T09:18:35.241Z,14.10
2022-10-29T09:20:53.152Z,14.17
2022-10-29T09:23:10.401Z,14.27
2022-10-29T09:25:27.362Z,14.35
2022-10-29T09:27:45.625Z,14.45
2022-10-29T09:30:02.859Z,14.55
2022-10-29T09:32:20.815Z,14.65
2022-10-29T09:34:37.858Z,14.76
2022-10-29T09:36:55.851Z,14.86
2022-10-29T09:39:13.098Z,14.94
2022-10-29T09:41:30.398Z,15.01
2022-10-29T09:43:48.398Z,15.14
2022-10-29T09:46:05.746Z,15.20
2022-10-29T09:48:22.998Z,15.27
2022-10-29T09:50:42.438Z,15.34
2022-10-29T09:52:59.703Z,15.45
2022-10-29T09:55:17.697Z,15.61
2022-10-29T09:57:34.716Z,15.66
2022-10-29T09:59:51.752Z,15.74
2022-10-29T10:02:08.921Z,15.81
2022-10-29T10:04:26.333Z,15.92
2022-10-29T10:06:43.216Z,15.97
2022-10-29T10:09:00.256Z,16.09
2022-10-29T10:11:17.237Z,16.14
2022-10-29T10:13:34.262Z,16.24
2022-10-29T10:15:51.297Z,16.30
2022-10-29T10:18:08.281Z,16.35
2022-10-29T10:20:25.794Z,16.39
2022-10-29T10:22:43.034Z,16.41
2022-10-29T10:25:01.072Z,16.42
2022-10-29T10:27:18.377Z,16.44
2022-10-29T10:29:35.615Z,16.48
2022-10-29T10:31:52.650Z,16.53
2022-10-29T10:34:09.617Z,16.56
2022-10-29T10:36:26.850Z,16.59
2022-10-29T10:38:44.233Z,16.62
2022-10-29T10:41:01.312Z,16.64
2022-10-29T10:43:19.306Z,16.63
2022-10-29T10:45:36.364Z,16.61
2022-10-29T10:47:53.414Z,16.65
2022-10-29T10:50:10.439Z,16.64
2022-10-29T10:52:27.677Z,16.57
2022-10-29T10:54:44.830Z,16.52
2022-10-29T10:57:01.863Z,16.47
2022-10-29T10:59:18.903Z,16.43
2022-10-29T11:01:36.059Z,16.37
2022-10-29T11:03:53.149Z,16.32
2022-10-29T11:06:10.193Z,16.32
2022-10-29T11:08:27.147Z,16.31
2022-10-29T11:10:44.174Z,16.37
2022-10-29T11:13:01.454Z,16.36
2022-10-29T11:15:18.632Z,16.33
2022-10-29T11:17:35.867Z,16.33
2022-10-29T11:19:52.903Z,16.36
2022-10-29T11:22:09.885Z,16.40
2022-10-29T11:24:26.874Z,16.37
2022-10-29T11:26:44.909Z,16.41
2022-10-29T11:29:01.917Z,16.44
2022-10-29T11:31:20.251Z,16.49
2022-10-29T11:33:37.482Z,16.56
2022-10-29T11:35:57.519Z,16.65
2022-10-29T11:38:18.303Z,16.71
2022-10-29T11:40:35.332Z,16.80
2022-10-29T11:42:52.642Z,16.87
2022-10-29T11:45:09.668Z,16.95
2022-10-29T11:47:27.839Z,17.02
2022-10-29T11:49:45.091Z,17.08
2022-10-29T11:52:02.991Z,17.15
2022-10-29T11:54:20.188Z,17.21
2022-10-29T11:56:38.237Z,17.31
2022-10-29T11:58:55.456Z,17.38
2022-10-29T12:01:12.418Z,17.41
2022-10-29T12:03:29.742Z,17.45
2022-10-29T12:05:47.137Z,17.50
2022-10-29T12:08:04.390Z,17.52
2022-10-29T12:10:22.605Z,17.57
2022-10-29T12:12:39.656Z,17.62
2022-10-29T12:14:56.880Z,17.65
2022-10-29T12:17:14.051Z,17.69
2022-10-29T12:19:32.588Z,17.73
2022-10-29T12:21:49.824Z,17.79
2022-10-29T12:24:07.721Z,17.83
2022-10-29T12:26:24.955Z,17.86
2022-10-29T12:28:41.941Z,17.91
2022-10-29T12:30:59.259Z,17.99
2022-10-29T12:33:16.523Z,18.02
2022-10-29T12:35:34.560Z,18.09
2022-10-29T12:37:51.860Z,18.18
2022-10-29T12:40:08.881Z,18.24
2022-10-29T12:42:26.172Z,18.32
2022-10-29T12:44:45.189Z,18.41
2022-10-29T12:47:02.824Z,18.46
2022-10-29T12:49:20.202Z,18.50
2022-10-29T12:51:37.419Z,18.56
2022-10-29T12:53:54.844Z,18.65
2022-10-29T12:56:14.600Z,18.70
2022-10-29T12:58:33.150Z,18.76
2022-10-29T13:00:50.107Z,18.85
2022-10-29T13:03:07.241Z,18.88
2022-10-29T13:05:24.353Z,18.94
2022-10-29T13:07:41.265Z,19.05
2022-10-29T13:09:59.248Z,19.10
2022-10-29T13:12:24.068Z,19.14
2022-10-29T13:14:41.297Z,19.15
2022-10-29T13:16:58.338Z,19.14
2022-10-29T13:19:15.346Z,19.13
2022-10-29T13:21:33.376Z,19.10
2022-10-29T13:23:50.286Z,19.06
2022-10-29T13:26:07.523Z,19.04
2022-10-29T13:28:26.603Z,19.03
2022-10-29T13:30:43.629Z,19.02
2022-10-29T13:33:00.889Z,18.98
2022-10-29T13:35:18.395Z,18.96
2022-10-29T13:37:35.433Z,19.01
2022-10-29T13:39:52.751Z,19.07
2022-10-29T13:42:10.996Z,19.12
2022-10-29T13:44:28.068Z,19.15
2022-10-29T13:46:46.117Z,19.19
2022-10-29T13:49:03.422Z,19.23
2022-10-29T13:51:21.498Z,19.26
2022-10-29T13:53:38.559Z,19.29
2022-10-29T13:55:55.567Z,19.31
2022-10-29T13:58:13.489Z,19.34
2022-10-29T14:00:30.408Z,19.31
2022-10-29T14:02:48.447Z,19.28
2022-10-29T14:05:05.766Z,19.24
2022-10-29T14:07:23.773Z,19.19
2022-10-29T14:09:41.050Z,19.17
2022-10-29T14:11:58.398Z,19.15
2022-10-29T14:14:15.708Z,19.10
2022-10-29T14:16:33.689Z,19.03
2022-10-29T14:18:50.995Z,18.98
2022-10-29T14:21:08.237Z,18.95
2022-10-29T14:23:25.529Z,18.91
2022-10-29T14:25:42.787Z,18.84
2022-10-29T14:28:00.123Z,18.81
2022-10-29T14:30:18.550Z,18.77
2022-10-29T14:32:35.833Z,18.70
2022-10-29T14:34:53.130Z,18.63
2022-10-29T14:37:11.592Z,18.56
2022-10-29T14:39:32.533Z,18.53
2022-10-29T14:41:54.056Z,18.45
2022-10-29T14:44:12.369Z,18.41
2022-10-29T14:46:29.694Z,18.36
2022-10-29T14:48:46.786Z,18.28
2022-10-29T14:51:05.020Z,18.22
2022-10-29T14:53:22.040Z,18.16
2022-10-29T14:55:39.330Z,18.13
2022-10-29T14:57:56.646Z,18.09
2022-10-29T15:00:13.779Z,18.06
2022-10-29T15:02:38.092Z,18.04
2022-10-29T15:04:56.898Z,18.04
2022-10-29T15:07:13.919Z,17.98
2022-10-29T15:09:30.813Z,17.91
2022-10-29T15:11:47.913Z,17.93
2022-10-29T15:14:05.865Z,17.83
2022-10-29T15:16:22.898Z,17.76
2022-10-29T15:18:40.904Z,17.69
2022-10-29T15:20:58.135Z,17.62
2022-10-29T15:23:15.212Z,17.53
2022-10-29T15:25:32.705Z,17.49
2022-10-29T15:27:50.057Z,17.44
2022-10-29T15:30:07.394Z,17.36
2022-10-29T15:32:27.383Z,17.26
2022-10-29T15:34:47.484Z,17.25
2022-10-29T15:37:04.459Z,17.24
2022-10-29T15:39:21.944Z,17.17
2022-10-29T15:41:38.924Z,17.07
2022-10-29T15:43:56.252Z,17.02
2022-10-29T15:46:13.394Z,16.96
2022-10-29T15:48:33.837Z,16.90
2022-10-29T15:50:54.347Z,16.86
2022-10-29T15:53:11.412Z,16.83
2022-10-29T15:55:29.556Z,16.79
2022-10-29T15:57:46.468Z,16.77
2022-10-29T16:02:20.882Z,16.72
2022-10-29T16:04:38.385Z,16.65
2022-10-29T16:06:56.731Z,16.58
2022-10-29T16:09:14.008Z,16.49
2022-10-29T16:11:32.320Z,16.41
2022-10-29T16:13:54.593Z,16.35
2022-10-29T16:16:12.569Z,16.29
2022-10-29T16:18:29.509Z,16.27
2022-10-29T16:20:46.500Z,16.21
2022-10-29T16:23:04.619Z,16.11
2022-10-29T16:25:22.063Z,16.08
2022-10-29T16:27:39.382Z,16.00
2022-10-29T16:29:56.630Z,15.93
2022-10-29T16:32:13.891Z,15.88
2022-10-29T16:34:32.226Z,15.86
2022-10-29T16:36:49.400Z,15.81
2022-10-29T16:39:06.289Z,15.74
2022-10-29T16:41:23.693Z,15.70
2022-10-29T16:43:40.663Z,15.65
2022-10-29T16:46:01.125Z,15.59
2022-10-29T16:48:21.403Z,15.55
2022-10-29T16:50:39.297Z,15.52
2022-10-29T16:52:56.620Z,15.51
2022-10-29T16:55:13.669Z,15.47
2022-10-29T16:57:31.134Z,15.39
2022-10-29T16:59:48.868Z,15.31
2022-10-29T17:02:05.971Z,15.26
2022-10-29T17:04:23.077Z,15.20
2022-10-29T17:06:40.072Z,15.13
2022-10-29T17:08:57.659Z,15.10
2022-10-29T17:11:15.276Z,15.02
2022-10-29T17:13:32.289Z,14.95
2022-10-29T17:15:49.599Z,14.91
2022-10-29T17:18:06.774Z,14.87
2022-10-29T17:20:25.095Z,14.83
2022-10-29T17:22:42.411Z,14.77
2022-10-29T17:24:59.459Z,14.72
2022-10-29T17:27:16.746Z,14.66
2022-10-29T17:29:36.416Z,14.61
2022-10-29T17:31:54.923Z,14.58
2022-10-29T17:34:11.930Z,14.52
2022-10-29T17:36:28.998Z,14.47
2022-10-29T17:38:46.072Z,14.41
2022-10-29T17:41:03.344Z,14.38
2022-10-29T17:43:20.343Z,14.33
2022-10-29T17:45:37.289Z,14.31
2022-10-29T17:47:54.985Z,14.28
2022-10-29T17:50:12.260Z,14.23
2022-10-29T17:52:29.285Z,14.17
2022-10-29T17:54:46.317Z,14.10
2022-10-29T17:57:03.376Z,14.03
2022-10-29T17:59:21.438Z,13.97
2022-10-29T18:01:38.536Z,13.93
2022-10-29T18:03:56.975Z,13.88
2022-10-29T18:06:14.198Z,13.84
2022-10-29T18:08:32.307Z,13.77
2022-10-29T18:10:49.199Z,13.74
2022-10-29T18:13:06.156Z,13.71
2022-10-29T18:15:23.117Z,13.71
2022-10-29T18:17:41.447Z,13.67
2022-10-29T18:19:58.717Z,13.64
2022-10-29T18:22:15.694Z,13.64
2022-10-29T18:24:32.952Z,13.60
2022-10-29T18:26:50.267Z,13.65
2022-10-29T18:29:07.576Z,13.64
2022-10-29T18:34:06.780Z,13.56
2022-10-29T18:36:23.894Z,13.49
2022-10-29T18:38:40.953Z,13.46
2022-10-29T18:40:58.520Z,13.43
2022-10-29T18:43:15.526Z,13.45
2022-10-29T18:45:32.455Z,13.48
2022-10-29T18:47:49.479Z,13.39
2022-10-29T18:50:06.504Z,13.42
2022-10-29T18:52:23.742Z,13.33
2022-10-29T18:54:40.760Z,13.28
2022-10-29T18:56:58.241Z,13.27
2022-10-29T18:59:15.506Z,13.25
2022-10-29T19:01:32.637Z,13.17
2022-10-29T19:03:50.026Z,13.13
2022-10-29T19:06:06.994Z,13.14
2022-10-29T19:08:23.943Z,13.09
2022-10-29T19:10:41.278Z,13.03
2022-10-29T19:12:59.562Z,13.03
2022-10-29T19:15:16.535Z,12.99
2022-10-29T19:17:34.795Z,12.94
2022-10-29T19:19:52.169Z,12.93
2022-10-29T19:22:10.858Z,12.91
2022-10-29T19:24:28.044Z,12.88
2022-10-29T19:26:46.086Z,12.84
2022-10-29T19:29:04.164Z,12.82
2022-10-29T19:31:21.466Z,12.82
2022-10-29T19:33:39.444Z,12.81
2022-10-29T19:35:56.796Z,12.79
2022-10-29T19:38:14.005Z,12.76
2022-10-29T19:40:31.310Z,12.74
2022-10-29T19:42:48.338Z,12.71
2022-10-29T19:45:05.371Z,12.68
2022-10-29T19:47:22.701Z,12.67
2022-10-29T19:49:40.044Z,12.65
2022-10-29T19:51:58.473Z,12.62
2022-10-29T19:54:15.709Z,12.60
2022-10-29T19:56:33.006Z,12.56
2022-10-29T19:58:50.049Z,12.56
2022-10-29T20:01:07.074Z,12.55
2022-10-29T20:03:24.352Z,12.56
2022-10-29T20:05:41.387Z,12.54
2022-10-29T20:07:59.987Z,12.52
2022-10-29T20:10:17.177Z,12.52
2022-10-29T20:12:34.413Z,12.52
2022-10-29T20:14:51.298Z,12.48
2022-10-29T20:17:08.630Z,12.44
2022-10-29T20:19:25.546Z,12.38
2022-10-29T20:21:42.584Z,12.35
2022-10-29T20:23:59.724Z,12.32
2022-10-29T20:26:16.659Z,12.30
2022-10-29T20:28:34.859Z,12.27
2022-10-29T20:30:52.894Z,12.28
2022-10-29T20:33:11.968Z,12.27
2022-10-29T20:35:30.026Z,12.27
2022-10-29T20:37:47.036Z,12.27
2022-10-29T20:40:05.413Z,12.25
2022-10-29T20:42:22.357Z,12.23
2022-10-29T20:44:39.605Z,12.15
2022-10-29T20:46:56.786Z,12.12
2022-10-29T20:49:13.817Z,12.08
2022-10-29T20:51:30.742Z,12.06
2022-10-29T20:53:48.751Z,12.05
2022-10-29T20:56:05.727Z,12.03
2022-10-29T20:58:23.035Z,12.02
2022-10-29T21:00:41.274Z,11.99
2022-10-29T21:02:58.623Z,11.97
2022-10-29T21:05:16.569Z,11.97
2022-10-29T21:07:33.475Z,11.98
2022-10-29T21:09:50.404Z,11.98
2022-10-29T21:12:07.389Z,11.97
2022-10-29T21:14:24.674Z,11.95
2022-10-29T21:16:41.669Z,11.93
2022-10-29T21:18:58.743Z,11.91
2022-10-29T21:21:15.903Z,11.91
2022-10-29T21:23:33.172Z,11.95
2022-10-29T21:25:50.120Z,11.96
2022-10-29T21:28:07.028Z,11.94
2022-10-29T21:30:24.265Z,11.94
2022-10-29T21:32:41.270Z,11.90
2022-10-29T21:34:58.298Z,11.89
2022-10-29T21:37:15.231Z,11.87
2022-10-29T21:39:32.577Z,11.84
2022-10-29T21:41:49.704Z,11.82
2022-10-29T21:44:07.960Z,11.82
2022-10-29T21:46:25.885Z,11.84
2022-10-29T21:48:42.846Z,11.82
2022-10-29T21:50:59.764Z,11.82
2022-10-29T21:53:16.820Z,11.80
2022-10-29T21:55:33.872Z,11.78
2022-10-29T21:57:50.877Z,11.76
2022-10-29T22:00:07.897Z,11.72
2022-10-29T22:02:24.959Z,11.72
2022-10-29T22:04:42.265Z,11.73
2022-10-29T22:06:59.232Z,11.71
2022-10-29T22:09:16.151Z,11.72
2022-10-29T22:11:33.190Z,11.72
2022-10-29T22:13:50.446Z,11.72
2022-10-29T22:16:07.407Z,11.71
2022-10-29T22:18:24.598Z,11.67
2022-10-29T22:20:42.911Z,11.67
2022-10-29T22:23:00.180Z,11.68
2022-10-29T22:25:17.713Z,11.73
2022-10-29T22:27:34.792Z,11.72
2022-10-29T22:29:54.340Z,11.69
2022-10-29T22:32:11.689Z,11.66
2022-10-29T22:34:28.699Z,11.63
2022-10-29T22:36:45.964Z,11.67
2022-10-29T22:39:03.231Z,11.67
2022-10-29T22:41:20.264Z,11.65
2022-10-29T22:43:38.325Z,11.64
2022-10-29T22:45:58.715Z,11.63
2022-10-29T22:48:15.595Z,11.64
2022-10-29T22:50:32.590Z,11.63
2022-10-29T22:52:49.612Z,11.59
2022-10-29T22:55:06.646Z,11.58
2022-10-29T22:57:24.712Z,11.63
2022-10-29T22:59:41.964Z,11.60
2022-10-29T23:01:59.321Z,11.60
2022-10-29T23:04:17.599Z,11.59
2022-10-29T23:06:34.824Z,11.59
2022-10-29T23:08:52.069Z,11.60
2022-10-29T23:11:09.223Z,11.66
2022-10-29T23:13:26.129Z,11.65
2022-10-29T23:15:44.626Z,11.57
2022-10-29T23:18:01.897Z,11.54
2022-10-29T23:20:18.905Z,11.55
2022-10-29T23:22:36.012Z,11.52
2022-10-29T23:24:53.072Z,11.51
2022-10-29T23:27:10.047Z,11.50
2022-10-29T23:29:27.349Z,11.52
2022-10-29T23:31:44.672Z,11.55
2022-10-29T23:34:01.612Z,11.55
2022-10-29T23:36:18.650Z,11.52
2022-10-29T23:38:36.686Z,11.52
2022-10-29T23:40:54.906Z,11.51
2022-10-29T23:43:11.969Z,11.49
2022-10-29T23:45:29.224Z,11.46
2022-10-29T23:47:46.434Z,11.46
2022-10-29T23:50:03.472Z,11.44
2022-10-29T23:52:20.825Z,11.44
2022-10-29T23:54:37.812Z,11.42
2022-10-29T23:56:55.041Z,11.42
2022-10-29T23:59:13.416Z,11.43
